Time;durP1;ratioP1;P1;durP2;ratioP2;P2;SDS_P1;SDS_P2;PMS_P1;PMS_P2;Temp;Humidity;BMP_temperature;BMP_pressure;BME280_temperature;BME280_humidity;BME280_pressure;Samples;Min_cycle;Max_cycle;Signal;HPM_P1;HPM_P2
2020/12/07 00:01:33;;;;;;;43.20;24.10;;;5.50;95.70;;;;;;4890148;29;20507;-86
2020/12/07 00:03:59;;;;;;;40.72;24.10;;;5.50;95.70;;;;;;4864301;29;20037;-85
2020/12/07 00:06:26;;;;;;;42.85;23.25;;;5.50;95.70;;;;;;4892462;29;20041;-85
2020/12/07 00:08:53;;;;;;;39.03;21.17;;;5.50;95.70;;;;;;4876987;29;20039;-86
2020/12/07 00:11:19;;;;;;;43.58;23.77;;;5.60;95.70;;;;;;4866543;29;20064;-84
2020/12/07 00:13:48;;;;;;;38.75;20.83;;;5.50;95.70;;;;;;4851381;29;20045;-85
2020/12/07 00:16:15;;;;;;;39.58;21.10;;;5.50;95.70;;;;;;4880820;29;20052;-85
2020/12/07 00:18:44;;;;;;;43.25;23.88;;;5.50;95.70;;;;;;4856647;29;20428;-86
2020/12/07 00:21:10;;;;;;;47.17;26.00;;;5.60;95.70;;;;;;4877672;29;20036;-85
2020/12/07 00:23:37;;;;;;;40.38;22.17;;;5.60;95.70;;;;;;4865843;29;20037;-85
2020/12/07 00:26:08;;;;;;;50.10;26.77;;;5.50;95.70;;;;;;4861181;29;20049;-86
2020/12/07 00:28:35;;;;;;;44.17;24.37;;;5.50;95.70;;;;;;4894486;29;20499;-86
2020/12/07 00:31:05;;;;;;;40.10;21.65;;;5.50;95.70;;;;;;4866319;29;20516;-85
2020/12/07 00:33:32;;;;;;;56.97;29.73;;;5.50;95.70;;;;;;4879655;29;20040;-86
2020/12/07 00:35:59;;;;;;;52.05;26.52;;;5.60;95.70;;;;;;4892115;29;20508;-85
2020/12/07 00:38:25;;;;;;;43.30;24.48;;;5.50;95.70;;;;;;4860198;29;20044;-85
2020/12/07 00:40:52;;;;;;;52.88;28.40;;;5.60;95.70;;;;;;4855772;29;20037;-85
2020/12/07 00:43:21;;;;;;;52.63;28.75;;;5.60;95.70;;;;;;4863857;29;20036;-85
2020/12/07 00:45:47;;;;;;;50.07;25.40;;;5.50;95.70;;;;;;4891054;29;20409;-85
2020/12/07 00:48:15;;;;;;;46.92;26.35;;;5.60;95.80;;;;;;4878640;29;20045;-85
2020/12/07 00:50:42;;;;;;;65.68;36.72;;;5.50;96.00;;;;;;4864419;29;20043;-85
2020/12/07 00:53:09;;;;;;;65.30;37.20;;;5.50;95.70;;;;;;4880199;29;20063;-86
2020/12/07 00:55:36;;;;;;;53.15;29.15;;;5.50;95.80;;;;;;4841534;29;20082;-85
2020/12/07 00:58:03;;;;;;;42.38;23.70;;;5.60;95.80;;;;;;4844649;29;20491;-84
2020/12/07 01:00:29;;;;;;;40.10;22.20;;;5.50;95.80;;;;;;4893373;29;20052;-85
2020/12/07 01:02:56;;;;;;;51.53;25.23;;;5.60;95.80;;;;;;4876983;29;20059;-84
2020/12/07 01:05:23;;;;;;;37.47;21.15;;;5.60;95.80;;;;;;4860765;29;20059;-84
2020/12/07 01:07:51;;;;;;;35.25;18.80;;;5.60;95.80;;;;;;4878248;29;20045;-84
2020/12/07 01:10:17;;;;;;;29.88;16.77;;;5.60;95.90;;;;;;4879902;29;20041;-84
2020/12/07 01:12:44;;;;;;;33.43;17.67;;;5.60;96.10;;;;;;4849367;29;20047;-84
2020/12/07 01:15:12;;;;;;;40.35;19.65;;;5.60;95.90;;;;;;4854457;29;20045;-85
2020/12/07 01:17:39;;;;;;;30.05;16.83;;;5.60;96.10;;;;;;4874715;29;20040;-84
2020/12/07 01:20:10;;;;;;;33.47;17.77;;;5.60;95.90;;;;;;4853206;29;20061;-84
2020/12/07 01:22:37;;;;;;;26.23;15.27;;;5.60;95.90;;;;;;4827886;29;20028;-84
2020/12/07 01:25:05;;;;;;;32.45;16.98;;;5.60;95.90;;;;;;4864448;29;20048;-84
2020/12/07 01:27:44;;;;;;;20.20;11.73;;;5.60;95.90;;;;;;4890967;29;20044;-84
2020/12/07 01:30:11;;;;;;;28.55;16.35;;;5.60;96.00;;;;;;4873722;29;20032;-84
2020/12/07 01:32:38;;;;;;;29.43;16.70;;;5.60;96.20;;;;;;4862514;29;20040;-84
2020/12/07 01:35:04;;;;;;;29.67;17.17;;;5.60;96.00;;;;;;4848736;29;20044;-84
2020/12/07 01:37:31;;;;;;;29.55;17.63;;;5.60;96.00;;;;;;4859830;29;20052;-84
2020/12/07 01:39:58;;;;;;;30.33;17.35;;;5.60;96.00;;;;;;4871982;29;20055;-84
2020/12/07 01:42:24;;;;;;;28.77;15.87;;;5.60;96.00;;;;;;4881624;29;20133;-84
2020/12/07 01:44:54;;;;;;;28.23;14.73;;;5.60;96.00;;;;;;4844097;29;20049;-84
2020/12/07 01:47:28;;;;;;;35.50;19.77;;;5.60;96.10;;;;;;4871380;29;20049;-83
2020/12/07 01:50:01;;;;;;;28.73;17.92;;;5.60;96.10;;;;;;4875681;29;20130;-84
2020/12/07 01:52:28;;;;;;;32.15;19.45;;;5.60;96.00;;;;;;4873093;29;20046;-83
2020/12/07 01:54:57;;;;;;;33.00;18.60;;;5.60;96.10;;;;;;4839689;29;20038;-83
2020/12/07 01:57:32;;;;;;;28.38;16.95;;;5.60;96.10;;;;;;4855237;29;20048;-83
2020/12/07 02:00:06;;;;;;;27.25;16.23;;;5.60;96.20;;;;;;4863585;29;20028;-83
2020/12/07 02:02:46;;;;;;;36.47;20.25;;;5.60;96.20;;;;;;4881025;29;20049;-83
2020/12/07 02:05:18;;;;;;;28.58;16.73;;;5.60;96.20;;;;;;4875832;29;20037;-83
2020/12/07 02:07:46;;;;;;;35.63;20.23;;;5.60;96.20;;;;;;4849039;29;20799;-83
2020/12/07 02:10:13;;;;;;;32.72;18.50;;;5.60;96.20;;;;;;4871065;29;20625;-84
2020/12/07 02:12:40;;;;;;;31.85;19.38;;;5.60;96.20;;;;;;4844559;29;20049;-83
2020/12/07 02:15:07;;;;;;;31.13;18.80;;;5.60;96.20;;;;;;4847006;29;20040;-83
2020/12/07 02:17:34;;;;;;;28.27;15.90;;;5.60;96.20;;;;;;4860119;29;20377;-83
2020/12/07 02:20:01;;;;;;;30.83;17.75;;;5.60;96.30;;;;;;4877099;29;20045;-83
2020/12/07 02:22:31;;;;;;;30.30;17.17;;;5.50;96.20;;;;;;4844303;29;20037;-83
2020/12/07 02:25:21;;;;;;;37.45;21.08;;;5.50;96.30;;;;;;4893575;29;20830;-82
2020/12/07 02:27:49;;;;;;;32.83;18.70;;;5.50;96.30;;;;;;4876050;29;20044;-83
2020/12/07 02:30:18;;;;;;;32.47;17.40;;;5.50;96.30;;;;;;4859279;29;20043;-83
2020/12/07 02:32:46;;;;;;;35.85;19.98;;;5.50;96.40;;;;;;4877967;29;20052;-84
2020/12/07 02:35:19;;;;;;;40.20;21.50;;;5.50;96.40;;;;;;4857468;29;20047;-83
2020/12/07 02:37:49;;;;;;;35.03;20.67;;;5.50;96.40;;;;;;4848600;29;20408;-83
2020/12/07 02:40:19;;;;;;;40.60;20.35;;;5.50;96.40;;;;;;4862124;29;20036;-83
2020/12/07 02:42:46;;;;;;;37.60;20.08;;;5.50;96.40;;;;;;4861742;29;20036;-84
2020/12/07 02:45:18;;;;;;;40.78;21.27;;;5.50;96.40;;;;;;4875915;29;20389;-83
2020/12/07 02:47:53;;;;;;;38.05;20.42;;;5.50;96.50;;;;;;4861434;29;20492;-83
2020/12/07 02:50:20;;;;;;;37.13;19.50;;;5.50;96.50;;;;;;4847662;29;20041;-83
2020/12/07 02:52:46;;;;;;;39.10;20.23;;;5.50;96.50;;;;;;4894515;29;20091;-83
2020/12/07 02:55:14;;;;;;;35.53;18.90;;;5.50;96.50;;;;;;4877083;29;20041;-83
2020/12/07 02:57:44;;;;;;;36.20;18.60;;;5.40;96.50;;;;;;4848245;29;20049;-83
2020/12/07 03:00:14;;;;;;;36.03;20.30;;;5.50;96.60;;;;;;4862119;29;20041;-83
2020/12/07 03:02:42;;;;;;;38.50;20.83;;;5.50;96.60;;;;;;4892353;29;20049;-83
2020/12/07 03:05:13;;;;;;;43.00;22.80;;;5.50;96.60;;;;;;4862973;29;20049;-83
2020/12/07 03:07:42;;;;;;;39.35;20.85;;;5.50;96.60;;;;;;4874721;29;20583;-83
2020/12/07 03:10:09;;;;;;;48.53;22.97;;;5.50;96.70;;;;;;4851378;29;20041;-84
2020/12/07 03:12:39;;;;;;;40.58;20.83;;;5.50;96.60;;;;;;4829061;29;20953;-83
2020/12/07 03:15:11;;;;;;;41.60;22.07;;;5.50;96.60;;;;;;4873158;29;20041;-83
2020/12/07 03:17:45;;;;;;;35.85;20.17;;;5.50;96.60;;;;;;4862093;29;20040;-84
2020/12/07 03:20:13;;;;;;;33.43;19.60;;;5.50;96.70;;;;;;4878106;29;20037;-84
2020/12/07 03:22:40;;;;;;;39.72;22.17;;;5.50;96.70;;;;;;4852043;29;20055;-83
2020/12/07 03:25:07;;;;;;;41.92;23.98;;;5.50;96.70;;;;;;4865719;29;20412;-83
2020/12/07 03:27:37;;;;;;;45.83;24.20;;;5.50;96.80;;;;;;4882745;29;20044;-79
2020/12/07 03:30:05;;;;;;;33.67;20.63;;;5.50;96.80;;;;;;4877589;29;20045;-84
2020/12/07 03:32:32;;;;;;;48.40;24.53;;;5.50;96.80;;;;;;4864899;29;20048;-83
2020/12/07 03:34:59;;;;;;;45.13;24.25;;;5.50;96.80;;;;;;4860429;29;20029;-83
2020/12/07 03:37:26;;;;;;;43.97;24.07;;;5.50;96.80;;;;;;4861299;29;20036;-85
2020/12/07 03:39:55;;;;;;;46.93;24.47;;;5.50;96.80;;;;;;4876353;29;20052;-84
2020/12/07 03:42:25;;;;;;;50.70;27.13;;;5.50;96.80;;;;;;4878686;29;20052;-85
2020/12/07 03:44:52;;;;;;;55.63;32.27;;;5.50;96.80;;;;;;4882393;29;20036;-84
2020/12/07 03:47:21;;;;;;;50.57;26.50;;;5.50;96.90;;;;;;4861942;29;20480;-84
2020/12/07 03:49:50;;;;;;;44.60;24.87;;;5.50;96.90;;;;;;4876552;29;20036;-84
2020/12/07 03:52:19;;;;;;;47.93;24.37;;;5.50;96.90;;;;;;4862773;29;20064;-85
2020/12/07 03:54:47;;;;;;;54.33;27.48;;;5.50;96.90;;;;;;4865954;29;20052;-83
2020/12/07 03:57:14;;;;;;;48.97;26.20;;;5.50;96.90;;;;;;4865187;29;20037;-84
2020/12/07 03:59:42;;;;;;;47.65;25.17;;;5.50;96.90;;;;;;4858231;29;20048;-84
2020/12/07 04:02:09;;;;;;;37.42;19.65;;;5.50;97.00;;;;;;4847095;29;20052;-84
2020/12/07 04:04:57;;;;;;;51.30;25.60;;;5.50;97.00;;;;;;4865018;29;20041;-84
2020/12/07 04:07:26;;;;;;;57.55;27.15;;;5.60;97.00;;;;;;4865124;29;20149;-84
2020/12/07 04:10:23;;;;;;;44.80;22.80;;;5.60;97.00;;;;;;4860739;29;20045;-83
2020/12/07 04:12:55;;;;;;;50.92;26.83;;;5.60;97.00;;;;;;4852768;29;20033;-84
2020/12/07 04:15:22;;;;;;;52.00;26.73;;;5.60;97.00;;;;;;4827355;29;20057;-85
2020/12/07 04:17:51;;;;;;;50.33;25.33;;;5.60;97.00;;;;;;4856480;29;20060;-85
2020/12/07 04:20:24;;;;;;;47.35;24.23;;;5.60;97.10;;;;;;4869811;29;20055;-85
2020/12/07 04:22:53;;;;;;;56.00;29.52;;;5.60;97.10;;;;;;4875944;29;20037;-85
2020/12/07 04:25:23;;;;;;;55.57;29.10;;;5.60;97.10;;;;;;4876621;29;20057;-86
2020/12/07 04:28:01;;;;;;;57.17;28.08;;;5.60;97.10;;;;;;4856162;29;20539;-86
2020/12/07 04:30:44;;;;;;;47.63;26.63;;;5.60;97.10;;;;;;4850450;29;20476;-86
2020/12/07 04:33:16;;;;;;;48.30;24.70;;;5.60;97.10;;;;;;4858002;29;20489;-86
2020/12/07 04:35:47;;;;;;;50.23;26.47;;;5.60;97.10;;;;;;4830107;29;20033;-85
2020/12/07 04:38:27;;;;;;;50.75;25.63;;;5.70;97.20;;;;;;4857376;29;20051;-85
2020/12/07 04:41:06;;;;;;;45.03;24.17;;;5.60;97.20;;;;;;4831535;29;20041;-86
2020/12/07 04:43:36;;;;;;;65.32;34.85;;;5.60;97.20;;;;;;4842780;29;20206;-86
2020/12/07 04:46:03;;;;;;;57.50;29.17;;;5.70;97.20;;;;;;4860350;29;20056;-86
2020/12/07 04:48:47;;;;;;;44.13;24.63;;;5.70;97.20;;;;;;4844727;29;20033;-86
2020/12/07 04:51:20;;;;;;;60.63;31.95;;;5.60;97.20;;;;;;4869656;29;20059;-86
2020/12/07 04:54:01;;;;;;;55.33;30.83;;;5.60;97.20;;;;;;4846664;29;20045;-89
2020/12/07 04:56:31;;;;;;;;;;;5.60;97.20;;;;;;4872541;29;20041;-90
2020/12/07 04:58:57;;;;;;;53.07;29.33;;;5.60;97.20;;;;;;4898270;29;19916;-89
2020/12/07 05:01:24;;;;;;;47.13;25.45;;;5.60;97.20;;;;;;4883304;29;20037;-89
2020/12/07 05:03:58;;;;;;;48.53;25.63;;;5.60;97.20;;;;;;4883702;29;20041;-89
2020/12/07 05:07:09;;;;;;;57.07;30.03;;;5.60;97.20;;;;;;4863502;29;20060;-89
2020/12/07 05:09:51;;;;;;;48.17;26.23;;;5.60;97.30;;;;;;4856236;29;20052;-89
2020/12/07 05:12:35;;;;;;;46.73;27.10;;;5.60;97.30;;;;;;4846472;29;20061;-89
2020/12/07 05:15:08;;;;;;;50.38;28.48;;;5.50;97.30;;;;;;4866472;29;20052;-89
2020/12/07 05:18:15;;;;;;;46.38;26.50;;;5.60;97.30;;;;;;4882466;29;20428;-89
2020/12/07 05:20:57;;;;;;;48.17;24.63;;;5.60;97.30;;;;;;4838713;29;20060;-89
2020/12/07 05:23:28;;;;;;;49.83;26.10;;;5.60;97.40;;;;;;4854779;29;20061;-89
2020/12/07 05:26:21;;;;;;;48.53;27.17;;;5.50;97.40;;;;;;4869709;29;20036;-89
2020/12/07 05:29:11;;;;;;;51.63;28.33;;;5.60;97.40;;;;;;4885180;29;20040;-89
2020/12/07 05:31:57;;;;;;;45.05;26.08;;;5.50;97.40;;;;;;4884035;29;20049;-89
2020/12/07 05:34:31;;;;;;;45.35;25.45;;;5.60;97.40;;;;;;4894043;29;20043;-89
2020/12/07 05:37:04;;;;;;;40.23;24.57;;;5.60;97.40;;;;;;4867156;29;20047;-88
2020/12/07 05:39:33;;;;;;;46.80;26.57;;;5.60;97.50;;;;;;4866864;29;20045;-89
2020/12/07 05:42:22;;;;;;;45.33;24.77;;;5.60;97.50;;;;;;4855984;29;20048;-89
2020/12/07 05:44:55;;;;;;;48.27;25.70;;;5.60;97.50;;;;;;4862510;29;20041;-90
2020/12/07 05:47:26;;;;;;;49.57;27.97;;;5.60;97.50;;;;;;4846523;29;20041;-89
2020/12/07 05:49:56;;;;;;;54.15;29.25;;;5.60;97.50;;;;;;4830264;29;20048;-89
2020/12/07 05:52:35;;;;;;;43.50;24.23;;;5.60;97.50;;;;;;4840267;29;20046;-89
2020/12/07 05:55:05;;;;;;;55.03;28.60;;;5.60;97.50;;;;;;4833844;29;20056;-88
2020/12/07 05:57:58;;;;;;;43.67;24.83;;;5.60;97.50;;;;;;4847536;29;20045;-89
2020/12/07 06:00:37;;;;;;;52.47;27.92;;;5.60;97.60;;;;;;4861748;29;20174;-89
2020/12/07 06:03:07;;;;;;;50.92;29.00;;;5.60;97.60;;;;;;4833209;29;20033;-89
2020/12/07 06:05:34;;;;;;;47.63;23.58;;;5.60;97.60;;;;;;4862575;29;20048;-89
2020/12/07 06:08:11;;;;;;;58.33;30.48;;;5.60;97.60;;;;;;4845858;29;20061;-88
2020/12/07 06:10:50;;;;;;;49.97;28.43;;;5.60;97.90;;;;;;4846254;29;20048;-89
2020/12/07 06:13:24;;;;;;;50.13;26.37;;;5.60;97.60;;;;;;4862474;29;20048;-88
2020/12/07 06:15:52;;;;;;;54.60;28.83;;;5.60;97.60;;;;;;4860044;29;20048;-89
2020/12/07 06:18:29;;;;;;;55.22;29.90;;;5.60;97.60;;;;;;4865342;29;20041;-89
2020/12/07 06:21:13;;;;;;;46.53;25.03;;;5.70;97.70;;;;;;4880856;29;20049;-88
2020/12/07 06:23:56;;;;;;;46.57;24.37;;;5.70;97.70;;;;;;4865250;29;20037;-89
2020/12/07 06:26:27;;;;;;;53.92;26.63;;;5.60;97.70;;;;;;4866306;29;20384;-89
2020/12/07 06:28:57;;;;;;;61.78;31.73;;;5.70;97.70;;;;;;4862639;29;20049;-89
2020/12/07 06:31:25;;;;;;;57.47;29.08;;;5.70;97.70;;;;;;4870323;29;20037;-87
2020/12/07 06:33:53;;;;;;;54.00;28.50;;;5.70;97.80;;;;;;4878309;29;20508;-87
2020/12/07 06:36:25;;;;;;;58.85;30.63;;;5.80;97.80;;;;;;4863176;29;20033;-86
2020/12/07 06:38:54;;;;;;;89.32;39.05;;;5.70;97.70;;;;;;4876433;29;20044;-87
2020/12/07 06:41:39;;;;;;;65.53;34.88;;;5.70;97.70;;;;;;4877456;29;20047;-86
2020/12/07 06:44:14;;;;;;;59.95;32.15;;;5.70;97.70;;;;;;4887941;29;20044;-85
2020/12/07 06:47:03;;;;;;;54.83;30.48;;;5.70;97.80;;;;;;4872328;29;20048;-85
2020/12/07 06:49:50;;;;;;;74.97;35.88;;;5.70;97.80;;;;;;4844213;29;20033;-87
2020/12/07 06:52:20;;;;;;;71.85;34.75;;;5.70;97.80;;;;;;4847236;29;20045;-86
2020/12/07 06:55:06;;;;;;;73.03;36.10;;;5.70;97.80;;;;;;4871360;29;20051;-87
2020/12/07 06:57:51;;;;;;;72.63;37.42;;;5.70;97.80;;;;;;4863376;29;20050;-87
2020/12/07 07:00:25;;;;;;;;;;;5.70;97.80;;;;;;4880099;29;20048;-88
2020/12/07 07:02:58;;;;;;;75.03;34.55;;;5.70;97.80;;;;;;4880666;29;19926;-88
2020/12/07 07:05:30;;;;;;;63.10;33.85;;;5.70;97.90;;;;;;4880390;29;20048;-88
2020/12/07 07:08:00;;;;;;;68.45;35.75;;;5.70;97.90;;;;;;4821624;29;20041;-87
2020/12/07 07:10:29;;;;;;;69.17;36.50;;;5.70;97.90;;;;;;4876093;29;20052;-87
2020/12/07 07:13:07;;;;;;;74.73;37.27;;;5.70;97.90;;;;;;4883779;29;20045;-91
2020/12/07 07:16:26;;;;;;;65.33;34.53;;;5.70;97.90;;;;;;4852430;29;20528;-90
2020/12/07 07:19:19;;;;;;;67.78;32.60;;;5.70;97.90;;;;;;4823170;29;20053;-89
2020/12/07 07:22:28;;;;;;;69.95;36.10;;;5.70;98.00;;;;;;4815311;29;20057;-87
2020/12/07 07:28:05;;;;;;;71.25;34.45;;;5.80;98.00;;;;;;4854151;29;20049;-88
2020/12/07 07:30:33;;;;;;;;;;;5.80;98.00;;;;;;4844534;29;20037;-87
2020/12/07 07:33:02;;;;;;;57.83;27.87;;;5.80;98.00;;;;;;4859099;29;20355;-87
2020/12/07 07:35:34;;;;;;;58.72;28.60;;;5.80;98.00;;;;;;4865071;29;20045;-88
2020/12/07 07:38:03;;;;;;;55.70;27.17;;;5.80;98.10;;;;;;4843569;29;20049;-84
2020/12/07 07:40:33;;;;;;;77.18;34.80;;;5.80;98.00;;;;;;4860363;29;20053;-84
2020/12/07 07:43:04;;;;;;;64.15;32.63;;;5.80;98.00;;;;;;4862664;29;20056;-84
2020/12/07 07:45:39;;;;;;;55.92;28.95;;;5.80;98.00;;;;;;4858880;29;20050;-84
2020/12/07 08:16:33;;;;;;;72.30;34.55;;;5.80;98.10;;;;;;4871603;29;20048;-84
2020/12/07 08:19:23;;;;;;;51.47;26.73;;;5.80;98.10;;;;;;4875795;29;20056;-83
2020/12/07 08:22:10;;;;;;;55.13;27.15;;;5.70;98.20;;;;;;4880275;29;20047;-83
2020/12/07 08:24:56;;;;;;;68.35;34.03;;;5.80;98.20;;;;;;4889177;29;20048;-83
2020/12/07 08:27:34;;;;;;;80.25;34.60;;;5.80;98.20;;;;;;4878183;29;20052;-83
2020/12/07 08:30:06;;;;;;;69.07;34.00;;;5.80;98.20;;;;;;4886230;29;20048;-84
2020/12/07 08:32:38;;;;;;;64.82;32.38;;;5.80;98.20;;;;;;4877201;29;20048;-84
2020/12/07 08:35:15;;;;;;;65.53;31.73;;;5.80;98.20;;;;;;4872315;29;20404;-84
2020/12/07 08:37:45;;;;;;;62.17;34.35;;;5.80;98.20;;;;;;4863716;29;20059;-84
2020/12/07 08:40:12;;;;;;;71.97;36.20;;;5.80;98.20;;;;;;4845908;29;20040;-88
2020/12/07 08:42:44;;;;;;;74.57;38.95;;;5.80;98.20;;;;;;4874623;29;20067;-88
2020/12/07 08:45:13;;;;;;;61.03;33.20;;;5.90;98.20;;;;;;4880939;29;20037;-88
2020/12/07 08:47:40;;;;;;;67.00;34.77;;;5.80;98.20;;;;;;4863974;29;20040;-89
2020/12/07 08:50:07;;;;;;;71.75;33.63;;;5.80;98.20;;;;;;4860620;29;20040;-87
2020/12/07 08:52:33;;;;;;;63.97;31.83;;;5.80;98.20;;;;;;4857696;29;20044;-88
2020/12/07 08:55:00;;;;;;;67.78;36.17;;;5.80;98.20;;;;;;4850448;29;20044;-88
2020/12/07 08:57:26;;;;;;;62.42;33.63;;;5.90;98.20;;;;;;4874177;29;20048;-88
2020/12/07 08:59:53;;;;;;;60.53;31.75;;;5.90;98.20;;;;;;4861107;29;20041;-88
2020/12/07 09:02:20;;;;;;;62.60;34.53;;;5.90;98.30;;;;;;4879453;29;20048;-88
2020/12/07 09:05:35;;;;;;;61.33;32.17;;;5.90;98.20;;;;;;4844926;29;20049;-89
2020/12/07 09:08:02;;;;;;;63.50;32.05;;;5.90;98.30;;;;;;4856968;29;20048;-88
2020/12/07 09:10:29;;;;;;;65.35;34.90;;;5.90;98.30;;;;;;4863374;29;20044;-88
2020/12/07 09:12:58;;;;;;;61.63;33.42;;;5.90;98.30;;;;;;4865047;29;20040;-88
2020/12/07 09:15:25;;;;;;;70.07;36.72;;;5.90;98.20;;;;;;4869774;29;20056;-88
2020/12/07 09:17:52;;;;;;;68.32;37.30;;;5.80;98.20;;;;;;4877449;29;20037;-88
2020/12/07 09:20:20;;;;;;;71.85;38.72;;;5.80;98.20;;;;;;4845958;29;20052;-89
2020/12/07 09:22:50;;;;;;;57.33;31.48;;;5.80;98.20;;;;;;4879971;29;20044;-90
2020/12/07 09:25:16;;;;;;;76.97;41.25;;;5.90;98.30;;;;;;4875423;29;20044;-88
2020/12/07 09:27:43;;;;;;;76.70;38.67;;;5.80;98.20;;;;;;4860768;29;20041;-88
2020/12/07 09:30:18;;;;;;;71.85;41.90;;;5.80;98.30;;;;;;4863132;29;20044;-91
2020/12/07 09:32:48;;;;;;;62.75;35.25;;;5.80;98.20;;;;;;4864980;29;20099;-91
2020/12/07 09:35:18;;;;;;;75.03;41.30;;;5.80;98.30;;;;;;4879182;29;20036;-88
2020/12/07 09:38:04;;;;;;;76.23;40.63;;;5.90;98.30;;;;;;4880417;29;20759;-89
2020/12/07 09:40:37;;;;;;;79.90;44.17;;;5.90;98.30;;;;;;4894865;29;20048;-88
2020/12/07 09:43:04;;;;;;;72.82;41.10;;;5.90;98.30;;;;;;4862732;29;20044;-84
2020/12/07 09:45:31;;;;;;;66.97;40.38;;;5.90;98.30;;;;;;4861558;29;20392;-89
2020/12/07 09:48:01;;;;;;;67.85;41.08;;;5.90;98.20;;;;;;4860473;29;20048;-88
2020/12/07 09:50:34;;;;;;;81.68;42.88;;;5.90;98.20;;;;;;4863980;29;20045;-88
2020/12/07 09:54:06;;;;;;;74.63;39.63;;;5.90;98.20;;;;;;4865074;29;20064;-88
2020/12/07 09:56:34;;;;;;;79.80;43.58;;;5.90;98.20;;;;;;4863583;29;20044;-89
2020/12/07 09:59:03;;;;;;;70.13;38.83;;;5.90;98.20;;;;;;4860271;29;20044;-89
2020/12/07 10:01:30;;;;;;;61.47;35.38;;;5.90;98.20;;;;;;4860727;29;20045;-88
2020/12/07 10:03:57;;;;;;;78.47;42.30;;;5.90;98.20;;;;;;4861182;29;20045;-88
2020/12/07 10:06:24;;;;;;;70.32;40.60;;;5.90;98.30;;;;;;4850211;29;20052;-88
2020/12/07 10:08:51;;;;;;;64.63;36.20;;;5.90;98.20;;;;;;4878482;29;20051;-88
2020/12/07 10:11:18;;;;;;;74.75;40.00;;;5.80;98.20;;;;;;4861301;29;20059;-88
2020/12/07 10:13:46;;;;;;;69.17;38.17;;;5.80;98.20;;;;;;4873896;29;20033;-90
2020/12/07 10:16:13;;;;;;;73.53;39.38;;;5.80;98.20;;;;;;4855832;29;20067;-88
2020/12/07 10:18:41;;;;;;;66.82;37.88;;;5.80;98.30;;;;;;4869703;29;20044;-90
2020/12/07 10:21:07;;;;;;;64.47;33.97;;;5.80;98.20;;;;;;4857659;29;20052;-89
2020/12/07 10:23:34;;;;;;;73.22;39.65;;;5.90;98.30;;;;;;4879564;29;20033;-87
2020/12/07 10:26:01;;;;;;;71.57;39.90;;;5.90;98.30;;;;;;4863340;29;20044;-88
2020/12/07 10:28:28;;;;;;;70.35;39.17;;;5.90;98.30;;;;;;4859326;29;20036;-87
2020/12/07 10:30:57;;;;;;;72.43;41.13;;;5.90;98.20;;;;;;4876423;29;20056;-88
2020/12/07 10:33:26;;;;;;;100.43;49.80;;;5.90;98.30;;;;;;4880777;29;20795;-91
2020/12/07 10:35:55;;;;;;;82.20;45.13;;;5.90;98.30;;;;;;4846155;29;20052;-87
2020/12/07 10:38:25;;;;;;;78.75;41.95;;;5.90;98.20;;;;;;4878435;29;20041;-90
2020/12/07 10:40:59;;;;;;;68.53;35.83;;;5.90;98.20;;;;;;4846985;29;20037;-89
2020/12/07 10:43:30;;;;;;;73.80;40.88;;;6.00;98.30;;;;;;4864300;29;20043;-88
2020/12/07 10:45:57;;;;;;;71.70;40.95;;;5.90;98.20;;;;;;4863759;29;20037;-89
2020/12/07 10:48:24;;;;;;;76.05;41.63;;;5.90;98.20;;;;;;4846118;29;20053;-88
2020/12/07 10:50:51;;;;;;;74.10;41.08;;;5.90;98.20;;;;;;4852571;29;20056;-89
2020/12/07 10:53:19;;;;;;;75.70;40.90;;;5.90;98.20;;;;;;4857071;29;20029;-88
2020/12/07 10:55:52;;;;;;;81.18;42.80;;;5.90;98.20;;;;;;4878222;29;20396;-87
2020/12/07 10:58:20;;;;;;;82.40;42.58;;;5.90;98.20;;;;;;4855949;29;20041;-87
2020/12/07 11:00:54;;;;;;;87.57;45.13;;;5.90;98.20;;;;;;4871721;29;20044;-88
2020/12/07 11:03:21;;;;;;;89.75;47.90;;;5.90;98.20;;;;;;4851261;29;20038;-85
2020/12/07 11:06:02;;;;;;;82.88;44.22;;;5.90;98.20;;;;;;4866274;29;20048;-85
2020/12/07 11:08:37;;;;;;;90.25;48.75;;;5.90;98.20;;;;;;4889380;29;20068;-84
2020/12/07 11:11:14;;;;;;;89.45;47.38;;;5.90;98.20;;;;;;4877824;29;20040;-84
2020/12/07 11:14:13;;;;;;;91.85;47.47;;;5.90;98.10;;;;;;4876870;29;20083;-85
2020/12/07 11:16:46;;;;;;;86.05;45.83;;;5.80;98.10;;;;;;4885998;29;20059;-86
2020/12/07 11:19:13;;;;;;;83.32;42.85;;;5.90;98.20;;;;;;4868990;29;20048;-91
2020/12/07 11:21:53;;;;;;;102.80;50.90;;;5.80;98.20;;;;;;4852089;29;20048;-92
2020/12/07 11:24:26;;;;;;;93.07;49.17;;;5.80;98.10;;;;;;4854044;29;20041;-93
2020/12/07 11:27:03;;;;;;;81.22;42.33;;;5.80;98.10;;;;;;4865317;29;20404;-94
2020/12/07 11:29:38;;;;;;;101.28;48.63;;;5.80;98.20;;;;;;4865129;29;20051;-89
2020/12/07 11:32:05;;;;;;;95.40;47.95;;;5.80;98.20;;;;;;4863392;29;20033;-92
2020/12/07 11:34:32;;;;;;;112.18;49.40;;;5.80;98.20;;;;;;4880724;29;20044;-90
2020/12/07 11:36:58;;;;;;;112.53;54.75;;;5.80;98.20;;;;;;4855944;29;20052;-91
2020/12/07 11:44:36;;;;;;;110.28;51.17;;;5.80;98.20;;;;;;4866776;29;20051;-89
2020/12/07 11:47:14;;;;;;;98.53;46.15;;;5.70;98.20;;;;;;4861510;29;20500;-84
2020/12/07 11:49:42;;;;;;;108.88;49.10;;;5.80;98.20;;;;;;4859403;29;20041;-90
2020/12/07 11:52:08;;;;;;;108.43;50.08;;;5.80;98.20;;;;;;4878692;29;20059;-93
2020/12/07 11:54:36;;;;;;;113.65;52.85;;;5.80;98.20;;;;;;4859774;29;20044;-89
2020/12/07 11:57:16;;;;;;;109.03;50.78;;;5.80;98.20;;;;;;4881568;29;20037;-89
2020/12/07 11:59:49;;;;;;;109.45;49.45;;;5.80;98.20;;;;;;4862174;29;20823;-92
2020/12/07 12:02:17;;;;;;;109.45;52.75;;;5.80;98.20;;;;;;4874487;29;20044;-92
2020/12/07 12:04:46;;;;;;;99.43;46.55;;;5.90;98.20;;;;;;4860126;29;20057;-93
2020/12/07 12:07:19;;;;;;;103.37;46.50;;;5.80;98.20;;;;;;4864364;29;20051;-92
2020/12/07 12:09:46;;;;;;;114.80;49.03;;;5.90;98.30;;;;;;4868258;29;20040;-94
2020/12/07 12:12:16;;;;;;;106.38;45.30;;;5.90;98.20;;;;;;4869175;29;20051;-93
2020/12/07 12:14:49;;;;;;;97.75;44.50;;;5.90;98.30;;;;;;4867119;29;20040;-93
2020/12/07 12:17:18;;;;;;;117.18;51.95;;;5.90;98.30;;;;;;4847824;29;20062;-93
2020/12/07 12:19:59;;;;;;;103.55;46.97;;;5.90;98.20;;;;;;4883027;29;20048;-93
2020/12/07 12:22:32;;;;;;;99.47;48.08;;;5.90;98.20;;;;;;4880623;29;20048;-95
2020/12/07 12:24:59;;;;;;;86.78;42.40;;;5.90;98.20;;;;;;4865788;29;20043;-93
2020/12/07 12:27:25;;;;;;;89.97;43.33;;;5.90;98.10;;;;;;4864618;29;20052;-93
2020/12/07 12:29:52;;;;;;;87.63;43.05;;;5.90;98.10;;;;;;4867465;29;20044;-94
2020/12/07 12:32:19;;;;;;;85.00;40.13;;;5.90;98.20;;;;;;4864690;29;20033;-93
2020/12/07 12:34:46;;;;;;;88.93;40.50;;;5.90;98.20;;;;;;4861184;29;20036;-94
2020/12/07 12:37:12;;;;;;;86.53;39.37;;;5.90;98.20;;;;;;4861271;29;20030;-95
2020/12/07 12:39:39;;;;;;;89.10;40.80;;;5.90;98.20;;;;;;4859827;29;20028;-93
2020/12/07 12:42:14;;;;;;;80.50;38.83;;;5.90;98.10;;;;;;4840541;29;20481;-93
2020/12/07 12:44:53;;;;;;;;;;;;;;;;;;;;;
2020/12/07 12:47:20;;;;;;;76.55;38.53;;;5.80;98.20;;;;;;4879661;29;20036;-92
2020/12/07 12:49:49;;;;;;;84.40;40.88;;;5.80;98.20;;;;;;4865621;29;20040;-93
2020/12/07 12:52:16;;;;;;;76.10;35.17;;;5.80;98.10;;;;;;4848968;29;20052;-93
2020/12/07 12:54:43;;;;;;;80.83;37.73;;;5.70;98.10;;;;;;4849734;29;20053;-90
2020/12/07 12:57:30;;;;;;;70.17;34.67;;;5.70;98.10;;;;;;4863501;29;20484;-90
2020/12/07 13:00:06;;;;;;;74.10;34.53;;;5.60;98.10;;;;;;4860920;29;20052;-92
2020/12/07 13:02:33;;;;;;;73.35;34.75;;;5.60;98.20;;;;;;4863460;29;20041;-93
2020/12/07 13:05:23;;;;;;;79.43;36.13;;;5.60;98.20;;;;;;4862801;29;20040;-85
2020/12/07 13:08:17;;;;;;;71.63;35.13;;;5.60;98.20;;;;;;4848778;29;20130;-89
2020/12/07 13:10:54;;;;;;;76.97;34.83;;;5.60;98.20;;;;;;4846490;29;20043;-92
2020/12/07 13:13:23;;;;;;;65.55;30.70;;;5.50;98.20;;;;;;4877105;29;20041;-87
2020/12/07 13:16:04;;;;;;;76.63;33.63;;;5.50;98.30;;;;;;4863535;29;20488;-92
2020/12/07 13:18:51;;;;;;;62.03;29.70;;;5.60;98.30;;;;;;4853319;29;20052;-87
2020/12/07 13:21:33;;;;;;;79.15;36.50;;;5.60;98.40;;;;;;4860331;29;20037;-87
2020/12/07 13:24:15;;;;;;;74.43;34.53;;;5.60;98.40;;;;;;4861009;29;20032;-89
2020/12/07 13:26:51;;;;;;;65.00;32.08;;;5.60;98.30;;;;;;4822460;29;20036;-89
2020/12/07 13:29:21;;;;;;;63.67;31.35;;;5.50;98.20;;;;;;4842187;29;20041;-90
2020/12/07 13:31:52;;;;;;;67.57;31.90;;;5.60;98.30;;;;;;4829613;29;21489;-89
2020/12/07 13:35:01;;;;;;;66.95;29.63;;;5.60;98.40;;;;;;4854972;29;20052;-89
2020/12/07 13:37:59;;;;;;;73.40;35.42;;;5.60;98.40;;;;;;4850776;29;20044;-89
2020/12/07 13:40:27;;;;;;;68.82;32.33;;;5.60;98.40;;;;;;4857822;29;20044;-88
2020/12/07 13:43:06;;;;;;;73.72;32.28;;;5.60;98.40;;;;;;4860030;29;21013;-91